Time;durP1;ratioP1;P1;durP2;ratioP2;P2;SDS_P1;SDS_P2;PMS_P1;PMS_P2;Temp;Humidity;BMP_temperature;BMP_pressure;BME280_temperature;BME280_humidity;BME280_pressure;Samples;Min_cycle;Max_cycle;Signal;HPM_P1;HPM_P2
2023/10/25 00:00:27;;;;;;;5.03;4.53;;;;;;;12.30;100.00;97926.94;6101397;23;20170;-84
2023/10/25 00:02:56;;;;;;;4.10;3.70;;;;;;;12.35;100.00;97923.44;6101696;23;20176;-84
2023/10/25 00:05:32;;;;;;;4.00;3.60;;;;;;;12.34;100.00;97930.69;6101765;23;20207;-85
2023/10/25 00:08:03;;;;;;;4.60;3.77;;;;;;;12.29;100.00;97929.88;6101387;23;20196;-84
2023/10/25 00:10:32;;;;;;;4.13;3.73;;;;;;;12.28;100.00;97922.91;6125451;23;20173;-84
2023/10/25 00:13:00;;;;;;;4.17;3.40;;;;;;;12.30;100.00;97926.94;6124805;23;20444;-83
2023/10/25 00:15:28;;;;;;;4.37;3.50;;;;;;;12.28;100.00;97922.91;6126730;23;20169;-86
2023/10/25 00:18:00;;;;;;;3.77;3.47;;;;;;;12.24;100.00;97927.22;6126168;23;20194;-84
2023/10/25 00:20:32;;;;;;;3.90;3.50;;;;;;;12.22;100.00;97922.13;6102581;23;20197;-83
2023/10/25 00:23:02;;;;;;;4.10;3.70;;;;;;;12.20;100.00;97921.59;6126531;23;20180;-83
2023/10/25 00:25:32;;;;;;;4.30;3.13;;;;;;;12.22;100.00;97919.44;6101829;23;20237;-84
2023/10/25 00:27:59;;;;;;;4.17;3.77;;;;;;;12.17;100.00;97924.00;6124580;23;20176;-84
2023/10/25 00:30:28;;;;;;;3.80;3.40;;;;;;;12.19;100.00;97924.53;6125262;23;20170;-84
2023/10/25 00:32:55;;;;;;;3.77;3.47;;;;;;;12.17;100.00;97915.97;6124740;23;20209;-85
2023/10/25 00:35:27;;;;;;;3.73;3.43;;;;;;;12.18;100.00;97918.34;6124998;23;20178;-85
2023/10/25 00:37:56;;;;;;;3.97;3.67;;;;;;;12.17;100.00;97921.31;6125668;23;20178;-84
2023/10/25 00:40:32;;;;;;;3.63;3.30;;;;;;;12.21;100.00;97917.84;6079035;23;20171;-84
2023/10/25 00:43:22;;;;;;;4.00;3.60;;;;;;;12.26;100.00;97914.34;6124435;23;20171;-85
2023/10/25 00:46:01;;;;;;;4.00;3.57;;;;;;;12.21;100.00;97907.09;6078220;23;20168;-84
2023/10/25 00:48:33;;;;;;;4.03;3.63;;;;;;;12.22;100.00;97906.03;6125895;23;20165;-84
2023/10/25 00:51:08;;;;;;;4.50;4.10;;;;;;;12.36;100.00;97906.25;6126619;23;20170;-84
2023/10/25 00:53:39;;;;;;;4.60;4.20;;;;;;;12.23;100.00;97904.91;6125038;23;20238;-84
2023/10/25 00:56:08;;;;;;;4.97;4.47;;;;;;;12.27;100.00;97902.53;6101201;23;20188;-84
2023/10/25 00:58:38;;;;;;;5.17;4.70;;;;;;;12.29;100.00;97916.47;6077170;23;20212;-85
2023/10/25 01:01:10;;;;;;;5.87;5.07;;;;;;;12.21;100.00;97909.78;6077729;23;20175;-85
2023/10/25 01:03:39;;;;;;;5.73;5.17;;;;;;;12.25;100.00;97918.09;6124676;23;20210;-84
2023/10/25 01:06:09;;;;;;;5.27;4.77;;;;;;;12.22;100.00;97913.28;6100730;23;20227;-85
2023/10/25 01:08:39;;;;;;;5.60;5.10;;;;;;;12.18;100.00;97912.19;6101044;23;20174;-85
2023/10/25 01:11:16;;;;;;;5.43;4.93;;;;;;;12.25;100.00;97915.41;6101606;23;20159;-84
2023/10/25 01:13:45;;;;;;;5.93;5.33;;;;;;;12.25;100.00;97904.66;6124763;23;20174;-84
2023/10/25 01:16:18;;;;;;;6.80;5.70;;;;;;;12.19;100.00;97903.06;6101853;23;20170;-85
2023/10/25 01:18:46;;;;;;;5.87;5.30;;;;;;;12.27;100.00;97908.66;6124527;23;20523;-85
2023/10/25 01:21:15;;;;;;;6.10;5.53;;;;;;;12.21;100.00;97904.41;6100738;23;20190;-84
2023/10/25 01:23:58;;;;;;;5.30;4.80;;;;;;;12.18;100.00;97912.19;6101129;23;20488;-84
2023/10/25 01:26:27;;;;;;;5.50;5.00;;;;;;;12.31;100.00;97908.94;6124886;23;20257;-84
2023/10/25 01:28:59;;;;;;;5.63;5.13;;;;;;;12.28;100.00;97906.78;6124314;23;20224;-84
2023/10/25 01:31:30;;;;;;;6.13;4.60;;;;;;;12.22;100.00;97911.38;6077962;23;20199;-84
2023/10/25 01:33:58;;;;;;;5.00;4.50;;;;;;;12.25;100.00;97910.03;6124097;23;20629;-84
2023/10/25 01:36:26;;;;;;;5.40;4.90;;;;;;;12.16;100.00;97904.41;6100842;23;20180;-84
2023/10/25 01:38:54;;;;;;;5.53;5.03;;;;;;;12.15;100.00;97912.72;6124272;23;20206;-84
2023/10/25 01:41:24;;;;;;;5.83;4.97;;;;;;;12.12;100.00;97910.59;6100876;23;20173;-84
2023/10/25 01:43:55;;;;;;;5.33;4.83;;;;;;;12.10;100.00;97913.53;6124157;23;20190;-84
2023/10/25 01:46:25;;;;;;;4.60;4.20;;;;;;;12.15;100.00;97910.84;6101022;23;20617;-84
2023/10/25 01:48:56;;;;;;;5.43;4.37;;;;;;;12.11;100.00;97920.53;6099772;23;20179;-84
2023/10/25 01:51:24;;;;;;;5.10;4.60;;;;;;;12.15;100.00;97928.84;6100913;23;20255;-84
2023/10/25 01:53:52;;;;;;;4.90;4.30;;;;;;;12.12;100.00;97924.81;6100087;23;20173;-85
2023/10/25 01:56:21;;;;;;;4.27;3.90;;;;;;;12.21;100.00;97919.72;6076903;23;20221;-84
2023/10/25 01:58:50;;;;;;;4.30;3.90;;;;;;;12.30;100.00;97921.56;6101007;23;20465;-85
2023/10/25 02:01:19;;;;;;;4.30;3.90;;;;;;;12.22;100.00;97922.13;6100210;23;20173;-85
2023/10/25 02:03:47;;;;;;;7.03;4.40;;;;;;;12.26;100.00;97933.13;6100027;23;20168;-85
2023/10/25 02:06:16;;;;;;;4.10;3.70;;;;;;;12.35;100.00;97934.19;6124056;23;20281;-84
2023/10/25 02:08:48;;;;;;;4.03;3.73;;;;;;;12.36;100.00;97928.53;6100970;23;20173;-85
2023/10/25 02:11:19;;;;;;;4.10;3.80;;;;;;;12.49;100.00;97945.16;6124435;23;20171;-84
2023/10/25 02:13:47;;;;;;;3.90;3.60;;;;;;;12.41;100.00;97941.13;6125427;23;20174;-84
2023/10/25 02:16:16;;;;;;;3.80;3.50;;;;;;;12.51;100.00;97940.31;6124269;23;20193;-84
2023/10/25 02:18:47;;;;;;;4.20;3.57;;;;;;;12.58;100.00;97938.97;6124766;23;20252;-84
2023/10/25 02:21:18;;;;;;;3.30;3.10;;;;;;;12.45;100.00;97941.41;6124476;23;20206;-84
2023/10/25 02:23:52;;;;;;;3.57;3.27;;;;;;;12.43;100.00;97947.06;6077623;23;20177;-84
2023/10/25 02:26:23;;;;;;;3.27;2.93;;;;;;;12.43;100.00;97952.41;6123925;23;20634;-84
2023/10/25 02:28:52;;;;;;;3.27;2.97;;;;;;;12.41;100.00;97959.16;6123716;23;20252;-84
2023/10/25 02:31:25;;;;;;;3.77;3.47;;;;;;;12.42;100.00;97961.56;6077281;23;20214;-85
2023/10/25 02:34:00;;;;;;;4.07;3.70;;;;;;;12.36;100.00;97963.44;6125661;23;20150;-84
2023/10/25 02:36:35;;;;;;;3.47;3.17;;;;;;;12.43;100.00;97965.03;6100762;23;20176;-85
2023/10/25 02:39:04;;;;;;;3.67;3.37;;;;;;;12.46;100.00;97954.56;6125559;23;20175;-84
2023/10/25 02:41:34;;;;;;;3.40;3.20;;;;;;;12.46;100.00;97962.59;6100086;23;20177;-85
2023/10/25 02:44:01;;;;;;;4.37;3.97;;;;;;;12.36;100.00;97958.06;6125418;23;20260;-84
2023/10/25 02:46:31;;;;;;;4.63;4.23;;;;;;;12.34;100.00;97970.16;6125154;23;20173;-84
2023/10/25 02:49:03;;;;;;;3.87;3.57;;;;;;;12.35;100.00;97977.16;6100351;23;20704;-87
2023/10/25 02:51:38;;;;;;;4.00;3.70;;;;;;;12.49;100.00;97985.44;6100820;23;20227;-84
2023/10/25 02:54:09;;;;;;;3.97;3.67;;;;;;;12.46;100.00;97986.00;6100727;23;20255;-85
2023/10/25 02:56:36;;;;;;;3.80;3.50;;;;;;;12.52;100.00;97992.97;6076347;23;20197;-85
2023/10/25 02:59:08;;;;;;;4.10;3.70;;;;;;;12.51;100.00;97997.53;6076672;23;20173;-85
2023/10/25 03:01:39;;;;;;;3.90;3.60;;;;;;;12.50;100.00;98012.06;6101906;23;20170;-84
2023/10/25 03:04:11;;;;;;;4.03;3.73;;;;;;;12.43;100.00;98008.00;6079394;23;20651;-84
2023/10/25 03:06:40;;;;;;;4.10;3.77;;;;;;;12.45;100.00;98006.69;6126179;23;20173;-85
2023/10/25 03:09:09;;;;;;;3.80;3.50;;;;;;;12.46;100.00;98007.50;6102583;23;20305;-85
2023/10/25 03:11:44;;;;;;;3.57;3.37;;;;;;;12.55;100.00;98013.94;6079211;23;20182;-85
2023/10/25 03:14:15;;;;;;;3.67;3.37;;;;;;;12.51;100.00;98010.94;6079360;23;20223;-84
2023/10/25 03:16:42;;;;;;;3.80;3.50;;;;;;;12.65;100.00;98020.06;6126103;23;20638;-85
2023/10/25 03:19:11;;;;;;;3.80;3.50;;;;;;;12.65;100.00;98028.13;6127614;23;20197;-84
2023/10/25 03:21:42;;;;;;;3.10;2.90;;;;;;;12.46;100.00;98018.25;6125557;23;20603;-85
2023/10/25 03:24:33;;;;;;;3.60;3.30;;;;;;;12.51;100.00;98026.25;6106789;23;20264;-84
2023/10/25 03:27:01;;;;;;;4.23;3.53;;;;;;;12.44;100.00;98025.75;6126957;23;20184;-84
2023/10/25 03:29:39;;;;;;;3.73;3.43;;;;;;;12.43;100.00;98034.88;6125731;23;20168;-84
2023/10/25 03:32:11;;;;;;;3.43;3.20;;;;;;;12.54;100.00;98036.50;6125827;23;20166;-85
2023/10/25 03:34:44;;;;;;;3.00;2.80;;;;;;;12.52;100.00;98034.06;6126110;23;20623;-85
2023/10/25 03:37:13;;;;;;;3.27;2.97;;;;;;;12.65;100.00;98030.00;6101971;23;20244;-84
2023/10/25 03:39:44;;;;;;;2.90;2.70;;;;;;;12.77;100.00;98043.97;6126432;23;20154;-85
2023/10/25 03:42:14;;;;;;;2.50;2.30;;;;;;;12.70;100.00;98046.94;6126968;23;20166;-84
2023/10/25 03:44:42;;;;;;;3.10;2.90;;;;;;;12.58;100.00;98045.63;6101868;23;20198;-85
2023/10/25 03:47:13;;;;;;;2.77;2.57;;;;;;;12.63;100.00;98041.03;6125185;23;20243;-84
2023/10/25 03:49:43;;;;;;;2.90;2.70;;;;;;;12.60;100.00;98043.44;6078850;23;20612;-85
2023/10/25 03:52:11;;;;;;;2.63;2.43;;;;;;;12.58;100.00;98043.72;6125548;23;20295;-85
2023/10/25 03:54:40;;;;;;;2.90;2.70;;;;;;;12.64;100.00;98050.72;6101642;23;20628;-86
2023/10/25 03:57:11;;;;;;;2.90;2.70;;;;;;;12.59;100.00;98056.09;6079379;23;20192;-84
2023/10/25 03:59:42;;;;;;;2.73;2.53;;;;;;;12.62;100.00;98060.13;6102059;23;20254;-84
2023/10/25 04:02:11;;;;;;;2.83;2.63;;;;;;;12.60;100.00;98067.63;6078883;23;20211;-84
2023/10/25 04:04:43;;;;;;;2.97;2.77;;;;;;;12.50;100.00;98071.16;6079339;23;20213;-85
2023/10/25 04:07:15;;;;;;;3.00;2.80;;;;;;;12.50;100.00;98073.84;6078916;23;20597;-84
2023/10/25 04:09:44;;;;;;;3.13;2.83;;;;;;;12.45;100.00;98067.66;6078877;23;20208;-85
2023/10/25 04:12:17;;;;;;;2.80;2.60;;;;;;;12.51;100.00;98082.69;6125608;23;20161;-86
2023/10/25 04:14:50;;;;;;;2.50;2.40;;;;;;;12.42;100.00;98085.09;6125580;23;20572;-86
2023/10/25 04:17:19;;;;;;;2.80;2.60;;;;;;;12.44;100.00;98091.03;6101071;23;20166;-82
2023/10/25 04:19:48;;;;;;;2.90;2.70;;;;;;;12.42;100.00;98093.16;6125430;23;20199;-82
2023/10/25 04:22:16;;;;;;;3.00;2.80;;;;;;;12.34;100.00;98099.88;6077008;23;20225;-82
2023/10/25 04:24:46;;;;;;;3.10;2.90;;;;;;;12.28;100.00;98102.81;6076515;23;20185;-83
2023/10/25 04:27:20;;;;;;;2.83;2.63;;;;;;;12.26;100.00;98108.47;6100938;23;20179;-84
2023/10/25 04:29:48;;;;;;;3.33;2.40;;;;;;;12.28;100.00;98100.13;6077644;23;20174;-83
2023/10/25 04:32:16;;;;;;;2.73;2.53;;;;;;;12.19;100.00;98107.91;6076376;23;20176;-83
2023/10/25 04:34:46;;;;;;;2.40;2.20;;;;;;;12.23;100.00;98110.84;6101532;23;20177;-83
2023/10/25 04:37:14;;;;;;;2.43;2.23;;;;;;;12.28;100.00;98108.19;6101312;23;20173;-83
2023/10/25 04:39:44;;;;;;;2.53;2.33;;;;;;;12.40;100.00;98107.94;6078156;23;20178;-83
2023/10/25 04:42:11;;;;;;;2.63;2.43;;;;;;;12.38;100.00;98105.50;6077710;23;20698;-82
2023/10/25 04:44:43;;;;;;;2.60;2.40;;;;;;;12.34;100.00;98112.50;6076619;23;20190;-83
2023/10/25 04:47:13;;;;;;;2.63;2.43;;;;;;;12.35;100.00;98112.25;6125938;23;20190;-83
2023/10/25 04:49:42;;;;;;;2.70;2.50;;;;;;;12.40;100.00;98100.69;6101058;23;20170;-82
2023/10/25 04:52:13;;;;;;;2.70;2.50;;;;;;;12.43;100.00;98105.53;6125574;23;20178;-82
2023/10/25 04:54:43;;;;;;;2.73;2.53;;;;;;;12.47;100.00;98114.66;6077876;23;20570;-83
2023/10/25 04:57:16;;;;;;;2.80;2.60;;;;;;;12.59;100.00;98119.78;6101902;23;20256;-82
2023/10/25 04:59:43;;;;;;;2.77;2.57;;;;;;;12.56;100.00;98131.84;6125450;23;20172;-82
2023/10/25 05:02:11;;;;;;;2.90;2.70;;;;;;;12.66;100.00;98125.66;6100911;23;20178;-82
2023/10/25 05:04:43;;;;;;;3.10;2.80;;;;;;;12.75;100.00;98111.41;6124935;23;20193;-83
2023/10/25 05:07:14;;;;;;;2.80;2.60;;;;;;;12.73;100.00;98113.59;6124966;23;20162;-83
2023/10/25 05:09:44;;;;;;;3.10;2.90;;;;;;;12.76;100.00;98113.03;6077924;23;20172;-83
2023/10/25 05:12:14;;;;;;;3.00;2.60;;;;;;;12.80;100.00;98119.47;6100710;23;20167;-83
2023/10/25 05:14:49;;;;;;;2.70;2.50;;;;;;;12.72;100.00;98111.97;6101991;23;20167;-82
2023/10/25 05:17:17;;;;;;;2.93;2.50;;;;;;;12.76;100.00;98113.03;6100395;23;20178;-84
2023/10/25 05:19:52;;;;;;;3.20;2.67;;;;;;;12.77;100.00;98111.97;6077074;23;20263;-83
2023/10/25 05:22:25;;;;;;;3.00;2.73;;;;;;;12.78;100.00;98116.25;6125935;23;20592;-85
2023/10/25 05:25:03;;;;;;;2.63;2.43;;;;;;;12.80;100.00;98105.22;6124260;23;20197;-84
2023/10/25 05:27:41;;;;;;;3.03;2.63;;;;;;;12.73;100.00;98107.41;6102126;23;20170;-82
2023/10/25 05:30:12;;;;;;;2.63;2.43;;;;;;;12.80;100.00;98111.41;6124345;23;20166;-82
2023/10/25 05:32:45;;;;;;;2.47;2.27;;;;;;;12.76;100.00;98112.22;6077506;23;20225;-84
2023/10/25 05:35:16;;;;;;;2.67;2.20;;;;;;;12.75;100.00;98116.78;6124820;23;20199;-83
2023/10/25 05:37:44;;;;;;;2.90;2.70;;;;;;;12.84;100.00;98127.00;6125529;23;20166;-84
2023/10/25 05:40:14;;;;;;;2.13;2.00;;;;;;;12.89;100.00;98135.06;6124257;23;20166;-82
2023/10/25 05:42:55;;;;;;;2.10;2.00;;;;;;;12.93;100.00;98136.94;6100125;23;20174;-84
2023/10/25 05:45:26;;;;;;;2.23;2.10;;;;;;;12.87;100.00;98140.72;6078794;23;20189;-82
2023/10/25 05:47:59;;;;;;;2.10;2.00;;;;;;;12.91;100.00;98138.28;6124590;23;20177;-83
2023/10/25 05:50:28;;;;;;;2.30;2.10;;;;;;;12.88;100.00;98138.84;6125745;23;20213;-83
2023/10/25 05:53:01;;;;;;;2.30;2.10;;;;;;;12.95;100.00;98150.09;6124422;23;20159;-82
2023/10/25 05:55:37;;;;;;;2.33;1.90;;;;;;;12.99;100.00;98146.59;6126056;23;20588;-82
2023/10/25 05:58:17;;;;;;;2.00;1.90;;;;;;;12.96;100.00;98154.41;6125473;23;20238;-82
2023/10/25 06:00:52;;;;;;;1.90;1.80;;;;;;;12.99;100.00;98152.00;6077078;23;20178;-82
2023/10/25 06:03:28;;;;;;;2.20;2.10;;;;;;;13.05;100.00;98158.16;6101195;23;20183;-82
2023/10/25 06:06:00;;;;;;;1.90;1.80;;;;;;;13.13;100.00;98169.22;6124343;23;20271;-82
2023/10/25 06:08:29;;;;;;;2.37;2.20;;;;;;;13.15;100.00;98172.44;6099961;23;20202;-82
2023/10/25 06:10:59;;;;;;;1.83;1.73;;;;;;;13.17;100.00;98170.28;6100147;23;20182;-82
2023/10/25 06:13:27;;;;;;;2.23;1.70;;;;;;;13.22;100.00;98167.56;6100187;23;20162;-82
2023/10/25 06:15:57;;;;;;;1.80;1.70;;;;;;;13.30;100.00;98168.13;6100369;23;20174;-82
2023/10/25 06:18:27;;;;;;;1.77;1.67;;;;;;;13.37;100.00;98177.50;6124068;23;20213;-84
2023/10/25 06:21:00;;;;;;;1.90;1.80;;;;;;;13.47;100.00;98174.78;6124425;23;20258;-81
2023/10/25 06:23:29;;;;;;;1.67;1.57;;;;;;;13.56;100.00;98169.66;6100122;23;20183;-82
2023/10/25 06:26:03;;;;;;;2.47;1.57;;;;;;;13.62;100.00;98176.63;6124270;23;20227;-83
2023/10/25 06:28:33;;;;;;;1.60;1.50;;;;;;;13.64;100.00;98169.88;6125766;23;20159;-83
2023/10/25 06:31:01;;;;;;;1.90;1.80;;;;;;;13.66;100.00;98177.69;6124373;23;20176;-82
2023/10/25 06:33:30;;;;;;;2.00;1.80;;;;;;;13.70;100.00;98183.34;6125500;23;20171;-82
2023/10/25 06:36:03;;;;;;;1.80;1.70;;;;;;;13.73;100.00;98180.88;6125389;23;20200;-82
2023/10/25 06:38:30;;;;;;;1.60;1.50;;;;;;;13.74;100.00;98176.31;6076285;23;20250;-83
2023/10/25 06:41:02;;;;;;;1.57;1.47;;;;;;;13.78;100.00;98177.38;6125656;23;20191;-82
2023/10/25 06:43:34;;;;;;;1.70;1.60;;;;;;;13.87;100.00;98173.03;6101346;23;20677;-83
2023/10/25 06:46:06;;;;;;;1.93;1.83;;;;;;;13.93;100.00;98174.63;6125373;23;20278;-82
2023/10/25 06:48:38;;;;;;;1.60;1.50;;;;;;;14.00;100.00;98185.88;6124076;23;20175;-83
2023/10/25 06:51:09;;;;;;;1.40;1.30;;;;;;;14.11;100.00;98198.25;6124138;23;20172;-82
2023/10/25 06:53:40;;;;;;;1.60;1.50;;;;;;;14.18;100.00;98200.63;6100677;23;20195;-83
2023/10/25 06:56:09;;;;;;;1.40;1.30;;;;;;;14.23;100.00;98201.41;6124186;23;20203;-82
2023/10/25 06:58:39;;;;;;;1.70;1.60;;;;;;;14.27;100.00;98212.44;6099857;23;20550;-82
2023/10/25 07:01:07;;;;;;;1.80;1.50;;;;;;;14.27;100.00;98215.13;6099739;23;20211;-82
2023/10/25 07:03:35;;;;;;;1.33;1.23;;;;;;;14.27;100.00;98224.03;6124013;23;20182;-82
2023/10/25 07:06:11;;;;;;;1.63;1.50;;;;;;;14.33;100.00;98235.56;6124775;23;20210;-82
2023/10/25 07:08:45;;;;;;;1.47;1.37;;;;;;;14.45;100.00;98228.81;6101086;23;20148;-82
2023/10/25 07:11:14;;;;;;;1.63;1.53;;;;;;;14.62;100.00;98225.72;6123517;23;20187;-83
2023/10/25 07:13:46;;;;;;;1.93;1.63;;;;;;;14.75;100.00;98230.50;6100644;23;20156;-82
2023/10/25 07:16:15;;;;;;;1.80;1.70;;;;;;;14.70;100.00;98229.72;6099655;23;20630;-82
2023/10/25 07:18:52;;;;;;;2.00;1.70;;;;;;;14.73;100.00;98226.47;6101550;23;20242;-83
2023/10/25 07:21:21;;;;;;;2.20;2.00;;;;;;;14.76;100.00;98224.03;6075786;23;20192;-82
2023/10/25 07:23:49;;;;;;;1.90;1.80;;;;;;;14.68;100.00;98235.41;6100271;23;20264;-83
2023/10/25 07:26:19;;;;;;;2.10;1.87;;;;;;;14.74;100.00;98241.56;6100206;23;20192;-82
2023/10/25 07:28:47;;;;;;;2.10;2.00;;;;;;;14.63;100.00;98242.72;6076782;23;20171;-82
2023/10/25 07:31:17;;;;;;;2.20;2.00;;;;;;;14.70;100.00;98241.31;6100215;23;20203;-82
2023/10/25 07:33:47;;;;;;;2.00;1.90;;;;;;;14.80;100.00;98233.16;6100149;23;20236;-82
2023/10/25 07:36:14;;;;;;;1.90;1.80;;;;;;;14.92;100.00;98244.41;6125162;23;20179;-82
2023/10/25 07:38:44;;;;;;;2.90;2.00;;;;;;;14.98;100.00;98231.66;6124122;23;20171;-82
2023/10/25 07:41:16;;;;;;;1.93;1.83;;;;;;;15.06;100.00;98239.19;6125138;23;20170;-82
2023/10/25 07:43:45;;;;;;;2.03;1.70;;;;;;;15.12;100.00;98245.31;6124240;23;20611;-82
2023/10/25 07:46:16;;;;;;;2.27;2.07;;;;;;;15.18;100.00;98250.41;6124759;23;20196;-82
2023/10/25 07:48:50;;;;;;;1.80;1.70;;;;;;;15.07;100.00;98258.88;6125868;23;20175;-83
2023/10/25 07:51:21;;;;;;;2.00;1.80;;;;;;;15.02;100.00;98256.22;6102055;23;20611;-82
2023/10/25 07:53:55;;;;;;;1.80;1.70;;;;;;;15.05;100.00;98264.53;6126273;23;20231;-83
2023/10/25 07:56:29;;;;;;;2.60;1.80;;;;;;;15.12;100.00;98275.78;6101225;23;20199;-82
2023/10/25 07:59:01;;;;;;;2.63;1.70;;;;;;;15.08;100.00;98274.75;6125980;23;20203;-82
2023/10/25 08:01:34;;;;;;;2.00;1.80;;;;;;;15.12;100.00;98270.41;6125529;23;20168;-82
2023/10/25 08:04:07;;;;;;;1.90;1.80;;;;;;;15.14;100.00;98270.13;6101373;23;20219;-82
2023/10/25 08:06:36;;;;;;;1.83;1.73;;;;;;;15.29;100.00;98273.53;6124949;23;20187;-82
2023/10/25 08:09:07;;;;;;;1.73;1.63;;;;;;;15.25;100.00;98285.16;6101641;23;20164;-82
2023/10/25 08:11:36;;;;;;;1.83;1.73;;;;;;;15.41;100.00;98283.94;6125098;23;20232;-82
2023/10/25 08:14:04;;;;;;;1.90;1.80;;;;;;;15.54;100.00;98291.41;6101622;23;20172;-82
2023/10/25 08:16:42;;;;;;;1.63;1.53;;;;;;;15.49;100.00;98296.81;6102545;23;20187;-82
2023/10/25 08:19:15;;;;;;;1.77;1.67;;;;;;;15.57;100.00;98284.63;6125353;23;20174;-82
2023/10/25 08:21:44;;;;;;;1.80;1.70;;;;;;;15.56;100.00;98288.41;6078880;23;20172;-82
2023/10/25 08:24:11;;;;;;;1.90;1.80;;;;;;;15.59;100.00;98291.34;6077625;23;20168;-82
2023/10/25 08:26:45;;;;;;;1.70;1.60;;;;;;;15.76;100.00;98280.94;6101485;23;20206;-83
2023/10/25 08:29:13;;;;;;;1.73;1.63;;;;;;;16.04;100.00;98289.28;6125216;23;20171;-82
2023/10/25 08:31:46;;;;;;;2.13;1.60;;;;;;;16.29;100.00;98287.09;6101715;23;20172;-82
2023/10/25 08:34:17;;;;;;;1.80;1.70;;;;;;;16.48;100.00;98289.03;6078596;23;20250;-82
2023/10/25 08:36:52;;;;;;;1.80;1.70;;;;;;;16.61;100.00;98285.66;6125252;23;20243;-83
2023/10/25 08:39:22;;;;;;;1.60;1.50;;;;;;;16.85;100.00;98282.88;6125022;23;20172;-82
2023/10/25 08:41:53;;;;;;;1.57;1.30;;;;;;;16.93;100.00;98284.94;6101459;23;20160;-83
2023/10/25 08:44:26;;;;;;;1.17;1.10;;;;;;;16.98;100.00;98287.56;6097763;23;20192;-82
2023/10/25 08:46:57;;;;;;;1.30;1.30;;;;;;;17.05;100.00;98282.56;6124972;23;20669;-82
2023/10/25 08:49:26;;;;;;;1.40;1.30;;;;;;;17.13;100.00;98271.06;6125418;23;20171;-83
2023/10/25 08:51:55;;;;;;;1.73;1.50;;;;;;;17.26;100.00;98270.34;6126108;23;20607;-84
2023/10/25 08:54:24;;;;;;;1.40;1.30;;;;;;;17.32;100.00;98279.97;6126645;23;20164;-83
2023/10/25 08:56:53;;;;;;;1.40;1.30;;;;;;;17.46;100.00;98278.13;6124699;23;20164;-82
2023/10/25 08:59:23;;;;;;;1.40;1.30;;;;;;;17.58;100.00;98285.78;6124134;23;20168;-82
2023/10/25 09:01:50;;;;;;;1.20;1.17;;;;;;;17.55;100.00;98281.75;6125422;23;20188;-82
2023/10/25 09:04:18;;;;;;;1.43;1.20;;;;;;;17.62;100.00;98278.69;6099920;23;20176;-83
2023/10/25 09:06:47;;;;;;;1.43;1.33;;;;;;;17.72;100.00;98281.22;6099751;23;20184;-82
2023/10/25 09:09:19;;;;;;;1.40;1.30;;;;;;;17.80;100.00;98279.72;6125897;23;20184;-84
2023/10/25 09:11:49;;;;;;;1.30;1.20;;;;;;;18.03;100.00;98274.13;6099940;23;20176;-82
2023/10/25 09:14:18;;;;;;;1.40;1.30;;;;;;;18.20;100.00;98273.53;6124209;23;20179;-82
2023/10/25 09:16:49;;;;;;;1.33;1.07;;;;;;;18.47;100.00;98261.88;6099731;23;20177;-82
2023/10/25 09:19:25;;;;;;;1.13;1.13;;;;;;;18.61;100.00;98262.69;6101566;23;20223;-82
2023/10/25 09:22:26;;;;;;;1.10;1.10;;;;;;;18.72;100.00;98255.09;6124282;23;20140;-82
2023/10/25 09:24:58;;;;;;;1.20;1.10;;;;;;;18.94;100.00;98255.16;6100303;23;20195;-82
2023/10/25 09:27:31;;;;;;;1.20;1.20;;;;;;;19.09;100.00;98260.22;6100600;23;20185;-84
2023/10/25 09:30:14;;;;;;;1.03;1.03;;;;;;;19.08;100.00;98261.34;6100208;23;20175;-81
2023/10/25 09:32:54;;;;;;;1.10;1.10;;;;;;;18.97;100.00;98262.69;6123742;23;20166;-83
2023/10/25 09:35:24;;;;;;;1.07;0.97;;;;;;;19.09;100.00;98262.91;6124105;23;20248;-82
2023/10/25 09:37:52;;;;;;;1.00;1.00;;;;;;;19.29;100.00;98246.16;6076257;23;20232;-83
2023/10/25 09:40:29;;;;;;;2.50;1.10;;;;;;;19.27;100.00;98253.00;6123983;23;20198;-82
2023/10/25 09:42:59;;;;;;;1.20;1.10;;;;;;;19.40;100.00;98249.41;6123914;23;20231;-82
2023/10/25 09:45:29;;;;;;;1.07;1.07;;;;;;;19.52;100.00;98248.88;6099929;23;20502;-83
2023/10/25 09:48:04;;;;;;;1.10;1.00;;;;;;;19.63;100.00;98250.22;6125251;23;20618;-82
2023/10/25 09:50:41;;;;;;;0.93;0.93;;;;;;;19.76;100.00;98252.03;6124034;23;20170;-81
2023/10/25 09:53:27;;;;;;;1.00;1.00;;;;;;;20.06;100.00;98248.47;6077153;23;20185;-81
2023/10/25 09:56:02;;;;;;;0.90;0.90;;;;;;;19.96;100.00;98240.63;6123648;23;20168;-82
2023/10/25 09:58:39;;;;;;;1.00;0.80;;;;;;;20.22;100.00;98241.50;6101642;23;20143;-81
2023/10/25 10:01:11;;;;;;;0.93;0.93;;;;;;;20.47;100.00;98229.13;6124939;23;20168;-81
2023/10/25 10:03:51;;;;;;;1.03;0.90;;;;;;;20.59;100.00;98226.56;6124043;23;20149;-83
2023/10/25 10:06:37;;;;;;;1.07;1.07;;;;;;;20.75;100.00;98223.38;6123916;23;20195;-81
2023/10/25 10:09:26;;;;;;;;;;;;;;;;;;;;;
2023/10/25 10:12:03;;;;;;;0.87;0.87;;;;;;;20.56;100.00;98221.78;6101170;23;20530;-82
2023/10/25 10:14:36;;;;;;;0.70;0.70;;;;;;;20.46;100.00;98224.00;6123770;23;20178;-81
2023/10/25 10:17:09;;;;;;;0.70;0.60;;;;;;;20.57;100.00;98217.94;6099573;23;20223;-81
2023/10/25 10:19:52;;;;;;;0.60;0.60;;;;;;;20.63;100.00;98213.91;6125393;23;20186;-81
2023/10/25 10:22:28;;;;;;;0.70;0.70;;;;;;;20.65;100.00;98208.16;6100246;23;20182;-80
2023/10/25 10:24:58;;;;;;;0.50;0.50;;;;;;;20.51;100.00;98210.22;6100911;23;20737;-82
2023/10/25 10:28:00;;;;;;;0.80;0.60;;;;;;;20.56;100.00;98213.59;6124251;23;20188;-80
2023/10/25 10:30:29;;;;;;;1.83;0.80;;;;;;;20.63;100.00;98213.13;6125260;23;20382;-80
2023/10/25 10:33:01;;;;;;;0.60;0.60;;;;;;;20.60;100.00;98203.69;6125576;23;20156;-82
2023/10/25 10:35:33;;;;;;;0.50;0.50;;;;;;;20.64;100.00;98195.69;6125146;23;20160;-82
2023/10/25 10:38:09;;;;;;;0.50;0.50;;;;;;;20.58;100.00;98181.41;6123750;23;20250;-80
2023/10/25 10:40:39;;;;;;;0.97;0.37;;;;;;;20.63;100.00;98192.16;6123630;23;20219;-81
2023/10/25 10:43:10;;;;;;;0.47;0.43;;;;;;;20.60;100.00;98183.84;6099648;23;20172;-80
2023/10/25 10:45:43;;;;;;;0.53;0.40;;;;;;;20.86;100.00;98179.19;6100915;23;20157;-80
2023/10/25 10:48:29;;;;;;;0.73;0.40;;;;;;;20.84;100.00;98177.91;6123162;23;20180;-81
2023/10/25 10:50:59;;;;;;;0.37;0.37;;;;;;;21.02;100.00;98168.59;6099117;23;20170;-81
2023/10/25 10:53:31;;;;;;;0.70;0.40;;;;;;;20.78;100.00;98157.41;6125249;23;20163;-80
2023/10/25 10:56:00;;;;;;;0.47;0.30;;;;;;;20.75;100.00;98150.69;6123399;23;20197;-81
2023/10/25 10:58:29;;;;;;;0.30;0.30;;;;;;;20.53;100.00;98148.94;6099962;23;20503;-81
2023/10/25 11:01:10;;;;;;;0.40;0.37;;;;;;;20.33;100.00;98135.19;6123540;23;20181;-81
2023/10/25 11:03:38;;;;;;;0.33;0.33;;;;;;;20.34;100.00;98142.22;6100470;23;20169;-81
2023/10/25 11:06:08;;;;;;;0.40;0.40;;;;;;;20.41;100.00;98128.94;6125168;23;20199;-81
2023/10/25 11:08:39;;;;;;;0.40;0.32;;;;;;;20.45;100.00;98127.97;6124989;23;20174;-80
2023/10/25 11:11:08;;;;;;;0.30;0.30;;;;;;;20.56;100.00;98123.03;6125092;23;20171;-81
2023/10/25 11:13:50;;;;;;;0.37;0.30;;;;;;;20.05;100.00;98119.13;6123821;23;20182;-81
2023/10/25 11:16:20;;;;;;;0.33;0.30;;;;;;;19.72;100.00;98120.63;6099581;23;20161;-81
2023/10/25 11:18:53;;;;;;;0.30;0.30;;;;;;;19.60;100.00;98126.66;6124976;23;20161;-81
2023/10/25 11:21:23;;;;;;;0.30;0.30;;;;;;;19.49;100.00;98124.56;6100184;23;20686;-81
2023/10/25 11:23:55;;;;;;;1.50;0.30;;;;;;;19.57;100.00;98121.88;6101977;23;20218;-81
2023/10/25 11:26:26;;;;;;;0.33;0.27;;;;;;;19.66;100.00;98111.03;6101430;23;20502;-81
2023/10/25 11:28:56;;;;;;;0.27;0.27;;;;;;;19.62;100.00;98116.28;6126911;23;20175;-81
2023/10/25 11:31:26;;;;;;;0.30;0.30;;;;;;;19.60;100.00;98112.28;6125410;23;20236;-81
2023/10/25 11:33:54;;;;;;;0.23;0.23;;;;;;;19.56;100.00;98114.03;6101989;23;20175;-81
2023/10/25 11:36:28;;;;;;;0.97;0.80;;;;;;;19.65;100.00;98120.28;6125257;23;20239;-81
2023/10/25 11:39:06;;;;;;;0.50;0.50;;;;;;;19.96;100.00;98125.66;6125811;23;20541;-81
2023/10/25 11:41:39;;;;;;;0.40;0.40;;;;;;;20.05;100.00;98099.28;6102120;23;20603;-81
2023/10/25 11:44:11;;;;;;;1.47;0.47;;;;;;;20.37;100.00;98104.31;6126786;23;20626;-81
2023/10/25 11:46:58;;;;;;;0.50;0.50;;;;;;;20.67;100.00;98091.63;6125048;23;20182;-81